Time;durP1;ratioP1;P1;durP2;ratioP2;P2;SDS_P1;SDS_P2;PMS_P1;PMS_P2;Temp;Humidity;BMP_temperature;BMP_pressure;BME280_temperature;BME280_humidity;BME280_pressure;Samples;Min_cycle;Max_cycle;Signal;HPM_P1;HPM_P2
2023/06/03 00:02:09;;;;;;;1.77;1.20;;;14.20;95.10;;;;;;4953027;29;20187;-81
2023/06/03 00:04:41;;;;;;;2.53;1.33;;;14.10;95.10;;;;;;4953252;29;20206;-80
2023/06/03 00:07:08;;;;;;;5.68;1.27;;;14.10;95.00;;;;;;4935491;29;20281;-81
2023/06/03 00:09:34;;;;;;;3.53;1.10;;;14.00;94.80;;;;;;4966530;28;20653;-81
2023/06/03 00:12:00;;;;;;;2.85;1.15;;;14.00;94.60;;;;;;4920247;29;20190;-81
2023/06/03 00:14:25;;;;;;;3.00;1.30;;;14.00;94.60;;;;;;4949491;29;20499;-79
2023/06/03 00:16:52;;;;;;;2.67;1.33;;;13.90;94.40;;;;;;4935187;29;20190;-82
2023/06/03 00:19:18;;;;;;;4.00;1.23;;;13.90;94.30;;;;;;4947681;29;20240;-81
2023/06/03 00:21:46;;;;;;;2.50;1.58;;;13.90;94.10;;;;;;4953107;29;20178;-84
2023/06/03 00:24:24;;;;;;;1.60;1.25;;;13.90;94.00;;;;;;4941562;29;20213;-80
2023/06/03 00:26:54;;;;;;;1.90;1.27;;;13.80;93.80;;;;;;4952963;29;20174;-81
2023/06/03 00:29:20;;;;;;;2.95;1.48;;;13.80;93.80;;;;;;4936268;29;20719;-81
2023/06/03 00:31:46;;;;;;;1.40;1.10;;;13.80;93.80;;;;;;4952752;29;20206;-84
2023/06/03 00:34:13;;;;;;;1.80;1.23;;;13.70;93.70;;;;;;4957323;28;20191;-81
2023/06/03 00:36:40;;;;;;;2.17;1.20;;;13.80;93.70;;;;;;4936150;29;20178;-81
2023/06/03 00:39:07;;;;;;;2.55;1.23;;;13.70;93.70;;;;;;4919785;29;20679;-80
2023/06/03 00:41:32;;;;;;;2.25;1.20;;;13.70;93.70;;;;;;4934898;29;20199;-81
2023/06/03 00:43:58;;;;;;;5.38;1.38;;;13.60;93.70;;;;;;4949325;29;20218;-80
2023/06/03 00:46:25;;;;;;;5.57;1.35;;;13.60;93.80;;;;;;4935907;29;20199;-81
2023/06/03 00:48:51;;;;;;;6.88;1.08;;;13.60;93.90;;;;;;4972174;28;20640;-80
2023/06/03 00:51:18;;;;;;;5.35;1.27;;;13.60;94.00;;;;;;4972404;28;20182;-81
2023/06/03 00:53:44;;;;;;;4.70;1.05;;;13.60;94.00;;;;;;4940849;29;20298;-80
2023/06/03 00:56:12;;;;;;;5.65;1.30;;;13.50;94.00;;;;;;4936076;29;20598;-80
2023/06/03 00:58:38;;;;;;;2.97;1.30;;;13.50;94.20;;;;;;4935234;29;20183;-80
2023/06/03 01:01:04;;;;;;;4.18;1.40;;;13.50;94.30;;;;;;4936119;29;20183;-81
2023/06/03 01:03:30;;;;;;;4.15;1.23;;;13.40;94.40;;;;;;4935312;29;20617;-81
2023/06/03 01:06:14;;;;;;;3.25;1.20;;;13.40;94.50;;;;;;4935965;29;20629;-80
2023/06/03 01:09:16;;;;;;;2.40;1.67;;;13.40;94.60;;;;;;4953171;28;20194;-81
2023/06/03 01:11:59;;;;;;;4.60;1.20;;;13.40;94.70;;;;;;4951287;29;20282;-80
2023/06/03 01:14:34;;;;;;;2.35;1.40;;;13.40;94.80;;;;;;4946679;28;20187;-80
2023/06/03 01:17:09;;;;;;;5.93;2.10;;;13.30;94.80;;;;;;4934959;29;20174;-80
2023/06/03 01:19:49;;;;;;;2.55;1.30;;;13.40;94.90;;;;;;4935672;29;20186;-80
2023/06/03 01:22:20;;;;;;;2.90;1.40;;;13.30;95.00;;;;;;4952729;29;20213;-80
2023/06/03 01:24:49;;;;;;;6.28;1.33;;;13.30;95.00;;;;;;4952883;28;20201;-81
2023/06/03 01:27:16;;;;;;;2.08;1.35;;;13.30;95.00;;;;;;4953952;29;20191;-82
2023/06/03 01:29:43;;;;;;;2.28;1.30;;;13.30;95.10;;;;;;4955103;29;20194;-81
2023/06/03 01:32:15;;;;;;;2.63;1.40;;;13.20;95.10;;;;;;4963166;28;20604;-80
2023/06/03 01:34:43;;;;;;;3.03;1.23;;;13.30;95.20;;;;;;4937525;29;20191;-80
2023/06/03 01:37:10;;;;;;;3.78;1.42;;;13.20;95.20;;;;;;4939096;29;20186;-80
2023/06/03 01:39:39;;;;;;;2.42;1.35;;;13.20;95.30;;;;;;4939423;29;20688;-80
2023/06/03 01:42:07;;;;;;;2.88;1.40;;;13.20;95.30;;;;;;4922948;29;20237;-80
2023/06/03 01:44:33;;;;;;;2.40;1.40;;;13.10;95.40;;;;;;4955389;29;20233;-81
2023/06/03 01:46:59;;;;;;;4.28;1.30;;;13.10;95.50;;;;;;4922822;29;20178;-81
2023/06/03 01:49:26;;;;;;;6.53;1.63;;;13.00;95.50;;;;;;4936533;29;20194;-82
2023/06/03 01:51:51;;;;;;;4.97;1.50;;;13.10;95.70;;;;;;4938383;29;20273;-84
2023/06/03 01:54:19;;;;;;;3.83;1.38;;;13.00;95.80;;;;;;4937995;29;20358;-80
2023/06/03 01:56:45;;;;;;;6.00;1.60;;;13.00;95.90;;;;;;4922261;29;20194;-80
2023/06/03 01:59:11;;;;;;;4.07;1.40;;;13.00;96.00;;;;;;4936501;29;20201;-80
2023/06/03 02:01:43;;;;;;;2.90;1.38;;;13.00;96.20;;;;;;4954729;28;20206;-81
2023/06/03 02:04:08;;;;;;;2.33;1.40;;;12.90;96.30;;;;;;4940526;28;20296;-80
2023/06/03 02:06:36;;;;;;;2.65;1.25;;;12.90;96.40;;;;;;4936106;29;20646;-80
2023/06/03 02:09:02;;;;;;;1.85;1.30;;;12.90;96.50;;;;;;4949256;29;20190;-80
2023/06/03 02:11:28;;;;;;;5.35;1.50;;;12.90;96.50;;;;;;4937869;29;20237;-81
2023/06/03 02:13:54;;;;;;;3.70;1.70;;;12.80;96.60;;;;;;4953777;28;20203;-80
2023/06/03 02:16:20;;;;;;;3.47;1.60;;;12.80;96.70;;;;;;4938771;29;20232;-80
2023/06/03 02:18:46;;;;;;;4.18;1.60;;;12.80;96.80;;;;;;4957917;28;20606;-80
2023/06/03 02:21:12;;;;;;;3.28;1.55;;;12.70;96.90;;;;;;4937968;29;20187;-80
2023/06/03 02:23:37;;;;;;;7.30;1.67;;;12.70;97.00;;;;;;4938111;29;20216;-80
2023/06/03 02:26:05;;;;;;;5.18;1.40;;;12.70;97.10;;;;;;4938600;29;20194;-80
2023/06/03 02:28:31;;;;;;;3.83;1.80;;;12.70;97.20;;;;;;4921826;29;20530;-80
2023/06/03 02:30:57;;;;;;;3.45;1.52;;;12.60;97.40;;;;;;4938188;29;20190;-80
2023/06/03 02:33:23;;;;;;;6.38;1.60;;;12.60;97.50;;;;;;4922141;29;20190;-80
2023/06/03 02:35:49;;;;;;;5.03;1.60;;;12.50;97.60;;;;;;4953910;29;20195;-80
2023/06/03 02:38:14;;;;;;;4.15;1.33;;;12.50;97.80;;;;;;4921168;29;20305;-80
2023/06/03 02:40:40;;;;;;;3.10;1.55;;;12.40;98.00;;;;;;4937535;29;20195;-80
2023/06/03 02:43:06;;;;;;;5.47;1.60;;;12.40;98.10;;;;;;4952757;29;20285;-80
2023/06/03 02:45:32;;;;;;;3.03;1.58;;;12.30;98.30;;;;;;4954694;29;20593;-80
2023/06/03 02:47:59;;;;;;;3.10;1.63;;;12.30;98.40;;;;;;4935550;29;20180;-80
2023/06/03 02:50:25;;;;;;;2.80;1.83;;;12.30;98.50;;;;;;4937834;29;20332;-80
2023/06/03 02:52:51;;;;;;;3.05;1.67;;;12.30;98.70;;;;;;4937219;29;20226;-80
2023/06/03 02:55:17;;;;;;;4.30;1.65;;;12.20;98.80;;;;;;4937021;29;20286;-82
2023/06/03 02:57:42;;;;;;;4.35;1.77;;;12.20;99.00;;;;;;4921433;29;20193;-80
2023/06/03 03:00:10;;;;;;;2.63;1.63;;;12.20;99.10;;;;;;4934728;29;20183;-80
2023/06/03 03:02:37;;;;;;;4.43;1.77;;;12.20;99.30;;;;;;4952874;29;20187;-80
2023/06/03 03:05:03;;;;;;;2.33;1.25;;;12.10;99.40;;;;;;4937369;29;20277;-80
2023/06/03 03:07:32;;;;;;;3.58;1.60;;;12.10;99.50;;;;;;4954947;29;20190;-80
2023/06/03 03:09:59;;;;;;;3.42;1.73;;;12.10;99.60;;;;;;4937671;29;20263;-79
2023/06/03 03:12:25;;;;;;;6.32;1.38;;;12.00;99.70;;;;;;4955672;28;20216;-80
2023/06/03 03:14:51;;;;;;;2.40;1.70;;;12.00;99.70;;;;;;4926799;29;20652;-80
2023/06/03 03:17:17;;;;;;;3.33;1.70;;;12.00;99.80;;;;;;4935545;29;20220;-81
2023/06/03 03:19:43;;;;;;;2.10;1.60;;;11.90;99.80;;;;;;4919901;29;20274;-80
2023/06/03 03:22:10;;;;;;;2.95;1.60;;;12.00;99.90;;;;;;4920771;29;20187;-81
2023/06/03 03:24:36;;;;;;;4.57;1.60;;;12.00;99.90;;;;;;4954842;29;20206;-80
2023/06/03 03:27:02;;;;;;;8.60;1.70;;;12.00;99.90;;;;;;4954064;29;20198;-81
2023/06/03 03:29:33;;;;;;;6.32;1.67;;;12.00;99.80;;;;;;4920043;29;20187;-81
2023/06/03 03:32:07;;;;;;;4.93;1.50;;;11.90;99.80;;;;;;4922478;29;20227;-82
2023/06/03 03:34:36;;;;;;;2.92;1.60;;;12.00;99.80;;;;;;4961136;28;20190;-80
2023/06/03 03:37:04;;;;;;;6.03;1.90;;;12.00;99.70;;;;;;4936344;29;20191;-82
2023/06/03 03:39:30;;;;;;;2.53;1.40;;;11.90;99.60;;;;;;4938903;29;20179;-82
2023/06/03 03:41:56;;;;;;;4.80;1.63;;;12.00;99.60;;;;;;4957237;29;20262;-80
2023/06/03 03:44:23;;;;;;;5.68;1.85;;;11.90;99.60;;;;;;4939721;29;20655;-81
2023/06/03 03:46:58;;;;;;;4.25;1.80;;;11.90;99.60;;;;;;4956328;28;20715;-81
2023/06/03 03:49:29;;;;;;;3.90;1.50;;;11.90;99.60;;;;;;4938016;29;20196;-80
2023/06/03 03:52:01;;;;;;;6.15;1.83;;;11.90;99.70;;;;;;4956074;29;20190;-81
2023/06/03 03:54:27;;;;;;;3.95;1.73;;;12.00;99.70;;;;;;4940722;29;20210;-81
2023/06/03 03:56:55;;;;;;;3.72;1.48;;;11.90;99.70;;;;;;4955846;29;20182;-81
2023/06/03 03:59:25;;;;;;;3.25;1.70;;;11.90;99.80;;;;;;4939488;29;20253;-80
2023/06/03 04:01:50;;;;;;;4.55;1.75;;;11.90;99.80;;;;;;4959185;28;20533;-82
2023/06/03 04:04:44;;;;;;;2.40;1.50;;;11.90;99.90;;;;;;4934610;29;20215;-80
2023/06/03 04:07:14;;;;;;;2.45;1.65;;;11.90;99.90;;;;;;4913486;29;20203;-81
2023/06/03 04:09:42;;;;;;;7.70;1.88;;;11.90;99.90;;;;;;4956590;28;20178;-80
2023/06/03 04:12:40;;;;;;;2.35;1.70;;;11.90;99.90;;;;;;4935927;29;20214;-81
2023/06/03 04:15:09;;;;;;;5.05;1.75;;;11.90;99.90;;;;;;4923337;28;20233;-81
2023/06/03 04:17:37;;;;;;;5.22;1.75;;;11.90;99.90;;;;;;4935327;29;20190;-80
2023/06/03 04:20:31;;;;;;;3.28;1.70;;;11.90;99.90;;;;;;4903762;29;20190;-80
2023/06/03 04:23:03;;;;;;;4.15;1.85;;;11.90;99.90;;;;;;4949773;29;20633;-80
2023/06/03 04:25:31;;;;;;;4.47;1.85;;;11.90;99.90;;;;;;4938271;29;20202;-79
2023/06/03 04:27:57;;;;;;;6.57;1.90;;;11.90;99.90;;;;;;4938477;29;20277;-79
2023/06/03 04:30:23;;;;;;;3.65;1.63;;;11.90;99.90;;;;;;4923742;29;20704;-80
2023/06/03 04:32:49;;;;;;;3.58;1.75;;;11.90;99.90;;;;;;4922553;29;20661;-80
2023/06/03 04:35:15;;;;;;;3.88;1.80;;;11.90;99.90;;;;;;4954692;29;20270;-81
2023/06/03 04:37:44;;;;;;;3.83;1.70;;;12.00;99.90;;;;;;4933371;29;20187;-82
2023/06/03 04:40:13;;;;;;;3.88;1.90;;;12.00;99.90;;;;;;4920070;29;20194;-81
2023/06/03 04:42:41;;;;;;;5.40;1.52;;;12.00;99.90;;;;;;4935813;29;20621;-82
2023/06/03 04:45:08;;;;;;;5.07;1.95;;;12.00;99.90;;;;;;4916206;29;20214;-82
2023/06/03 04:47:39;;;;;;;6.00;1.92;;;12.00;99.90;;;;;;4945270;29;20289;-82
2023/06/03 04:50:05;;;;;;;7.78;1.73;;;12.00;99.90;;;;;;4918544;29;20664;-82
2023/06/03 04:52:32;;;;;;;2.10;1.60;;;12.10;99.90;;;;;;4952396;29;20182;-82
2023/06/03 04:54:58;;;;;;;2.75;1.70;;;12.00;99.90;;;;;;4952476;29;20199;-82
2023/06/03 04:57:26;;;;;;;4.35;1.95;;;12.10;99.90;;;;;;4937233;29;20573;-83
2023/06/03 04:59:52;;;;;;;4.53;1.50;;;12.10;99.90;;;;;;4937205;28;20205;-82
2023/06/03 05:02:23;;;;;;;3.45;1.52;;;12.10;99.90;;;;;;4938921;29;20353;-87
2023/06/03 05:04:50;;;;;;;2.92;1.77;;;12.20;99.90;;;;;;4954882;29;20206;-82
2023/06/03 05:07:17;;;;;;;6.22;1.90;;;12.20;99.90;;;;;;4940810;29;20258;-83
2023/06/03 05:09:44;;;;;;;3.35;1.65;;;12.20;99.90;;;;;;4926898;29;20649;-83
2023/06/03 05:12:10;;;;;;;4.68;2.00;;;12.20;99.90;;;;;;4933385;29;20202;-84
2023/06/03 05:14:36;;;;;;;5.47;1.85;;;12.30;99.90;;;;;;4959699;28;20194;-82
2023/06/03 05:17:03;;;;;;;3.08;1.90;;;12.30;99.90;;;;;;4911840;29;20267;-82
2023/06/03 05:19:29;;;;;;;4.95;2.20;;;12.30;99.90;;;;;;4930895;29;20341;-82
2023/06/03 05:21:58;;;;;;;3.92;2.10;;;12.30;99.90;;;;;;4958198;28;20209;-83
2023/06/03 05:24:24;;;;;;;2.33;1.60;;;12.30;99.90;;;;;;4942159;28;20229;-83
2023/06/03 05:26:50;;;;;;;6.53;1.50;;;12.40;99.90;;;;;;4916699;29;20206;-83
2023/06/03 05:29:16;;;;;;;3.58;1.80;;;12.40;99.90;;;;;;4922403;29;20238;-83
2023/06/03 05:31:42;;;;;;;4.88;1.90;;;12.50;99.90;;;;;;4922298;28;20186;-83
2023/06/03 05:34:10;;;;;;;3.22;1.70;;;12.50;99.90;;;;;;4929982;29;20194;-82
2023/06/03 05:36:36;;;;;;;3.00;1.70;;;12.60;99.90;;;;;;4923587;29;20178;-83
2023/06/03 05:39:02;;;;;;;3.88;1.63;;;12.60;99.90;;;;;;4937310;28;20190;-82
2023/06/03 05:41:29;;;;;;;3.63;2.00;;;12.70;99.90;;;;;;4926211;28;20237;-83
2023/06/03 05:43:55;;;;;;;4.25;1.98;;;12.80;99.90;;;;;;4933145;29;20309;-83
2023/06/03 05:46:21;;;;;;;5.88;1.63;;;12.80;99.90;;;;;;4956673;29;20282;-82
2023/06/03 05:48:47;;;;;;;3.72;1.77;;;12.90;99.90;;;;;;4934791;28;20244;-82
2023/06/03 05:51:14;;;;;;;3.97;1.70;;;12.90;99.90;;;;;;4932356;29;20214;-82
2023/06/03 05:53:43;;;;;;;2.40;1.52;;;13.00;99.90;;;;;;4923227;29;20225;-82
2023/06/03 05:56:11;;;;;;;6.03;1.85;;;13.10;99.90;;;;;;4939220;29;20186;-83
2023/06/03 05:58:38;;;;;;;2.55;1.90;;;13.20;99.90;;;;;;4939193;29;20649;-83
2023/06/03 06:01:05;;;;;;;4.78;1.60;;;13.20;99.90;;;;;;4923211;29;20297;-83
2023/06/03 06:03:31;;;;;;;4.90;2.38;;;13.30;99.90;;;;;;4937783;29;20214;-81
2023/06/03 06:05:58;;;;;;;4.55;1.90;;;13.30;99.80;;;;;;4922673;29;20549;-83
2023/06/03 06:08:24;;;;;;;3.88;1.55;;;13.40;99.50;;;;;;4939144;29;20237;-84
2023/06/03 06:10:50;;;;;;;4.88;1.63;;;13.50;99.30;;;;;;4936505;29;20188;-84
2023/06/03 06:13:16;;;;;;;4.38;1.77;;;13.50;99.20;;;;;;4923803;29;20660;-83
2023/06/03 06:15:59;;;;;;;6.32;1.60;;;13.60;99.10;;;;;;4920378;29;20235;-82
2023/06/03 06:18:25;;;;;;;4.43;1.65;;;13.60;98.90;;;;;;4929864;29;20181;-85
2023/06/03 06:20:51;;;;;;;3.08;1.40;;;13.70;98.90;;;;;;4907649;29;20201;-82
2023/06/03 06:23:17;;;;;;;2.78;1.58;;;13.80;98.80;;;;;;4919395;29;20598;-83
2023/06/03 06:25:49;;;;;;;2.20;1.40;;;13.90;98.50;;;;;;4908386;29;20214;-83
2023/06/03 06:28:20;;;;;;;3.30;1.65;;;14.00;98.30;;;;;;4904751;29;20316;-83
2023/06/03 06:30:46;;;;;;;2.55;1.70;;;14.00;98.00;;;;;;4904042;29;20183;-82
2023/06/03 06:33:15;;;;;;;3.03;1.55;;;14.10;97.90;;;;;;4920632;29;20210;-82
2023/06/03 06:35:42;;;;;;;4.45;1.65;;;14.10;97.80;;;;;;4954321;29;20277;-82
2023/06/03 06:38:08;;;;;;;2.38;1.50;;;14.20;97.70;;;;;;4937137;29;20179;-82
2023/06/03 06:40:35;;;;;;;4.18;1.48;;;14.30;97.60;;;;;;4923086;29;20186;-82
2023/06/03 06:43:05;;;;;;;2.40;1.52;;;14.30;97.70;;;;;;4937572;29;20241;-82
2023/06/03 06:45:39;;;;;;;6.00;1.80;;;14.40;97.30;;;;;;4921724;29;20202;-82
2023/06/03 06:48:08;;;;;;;3.03;1.75;;;14.40;97.20;;;;;;4928659;28;20333;-84
2023/06/03 06:50:46;;;;;;;5.30;1.83;;;14.50;97.30;;;;;;4957569;28;20181;-83
2023/06/03 06:53:14;;;;;;;1.83;1.40;;;14.60;97.20;;;;;;4928045;29;20199;-83
2023/06/03 06:55:51;;;;;;;2.08;1.48;;;14.60;97.10;;;;;;4923694;29;20198;-83
2023/06/03 06:58:24;;;;;;;2.67;1.60;;;14.70;96.90;;;;;;4937970;29;20190;-82
2023/06/03 07:00:50;;;;;;;2.72;1.50;;;14.80;96.60;;;;;;4956178;29;20187;-84
2023/06/03 07:03:18;;;;;;;5.45;1.60;;;14.90;96.30;;;;;;4938164;29;20217;-81
2023/06/03 07:05:46;;;;;;;2.95;1.48;;;15.00;96.10;;;;;;4937876;29;20245;-81
2023/06/03 07:08:13;;;;;;;6.05;1.63;;;15.10;95.80;;;;;;4953193;29;20280;-80
2023/06/03 07:10:39;;;;;;;2.78;1.50;;;15.20;95.50;;;;;;4921923;29;20198;-81
2023/06/03 07:13:07;;;;;;;3.28;1.42;;;15.30;94.70;;;;;;4967065;28;20294;-82
2023/06/03 07:15:33;;;;;;;3.38;1.40;;;15.40;94.50;;;;;;4949047;28;20225;-84
2023/06/03 07:17:59;;;;;;;2.83;1.58;;;15.50;94.40;;;;;;4936044;29;20206;-82
2023/06/03 07:20:33;;;;;;;2.55;1.30;;;15.70;94.10;;;;;;4921876;29;20649;-82
2023/06/03 07:23:00;;;;;;;2.55;1.30;;;15.70;93.40;;;;;;4923161;29;20187;-83
2023/06/03 07:25:44;;;;;;;3.58;1.42;;;15.80;93.20;;;;;;4952185;29;20201;-83
2023/06/03 07:28:17;;;;;;;3.30;1.55;;;16.00;93.10;;;;;;4935206;29;20237;-83
2023/06/03 07:30:47;;;;;;;2.15;1.33;;;16.10;92.60;;;;;;4943865;28;20202;-82
2023/06/03 07:33:28;;;;;;;4.63;1.50;;;16.20;92.40;;;;;;4933744;29;20197;-82
2023/06/03 07:36:01;;;;;;;4.05;1.48;;;16.30;92.00;;;;;;4931835;29;20191;-84
2023/06/03 07:38:38;;;;;;;6.45;1.52;;;16.30;91.40;;;;;;4952146;29;20182;-82
2023/06/03 07:41:08;;;;;;;7.22;1.70;;;16.40;91.20;;;;;;4952602;29;20175;-79
2023/06/03 07:43:41;;;;;;;57.53;3.15;;;16.40;90.90;;;;;;4937815;29;20207;-80
2023/06/03 07:46:08;;;;;;;4.38;1.48;;;16.50;90.90;;;;;;4920965;29;20195;-80
2023/06/03 07:48:37;;;;;;;7.03;1.30;;;16.50;90.70;;;;;;4944655;28;20243;-79
2023/06/03 07:51:05;;;;;;;4.05;1.50;;;16.60;90.40;;;;;;4946395;29;20182;-80
2023/06/03 07:53:35;;;;;;;2.50;1.40;;;16.70;90.00;;;;;;4920916;29;20198;-82
2023/06/03 07:56:07;;;;;;;3.97;1.42;;;16.60;89.90;;;;;;4951053;29;20210;-81
2023/06/03 07:58:36;;;;;;;4.18;1.45;;;16.70;90.00;;;;;;4935553;29;20187;-81
2023/06/03 08:01:03;;;;;;;2.88;1.50;;;16.70;90.00;;;;;;4953438;29;20572;-83
2023/06/03 08:03:30;;;;;;;2.05;1.13;;;16.80;89.70;;;;;;4936385;29;20684;-82
2023/06/03 08:05:56;;;;;;;4.35;1.30;;;16.80;88.10;;;;;;4957121;28;20194;-78
2023/06/03 08:08:30;;;;;;;3.67;1.50;;;16.80;87.40;;;;;;4955780;28;20232;-78
2023/06/03 08:10:56;;;;;;;4.60;1.25;;;16.80;86.90;;;;;;4950934;29;20220;-80
2023/06/03 08:13:22;;;;;;;3.60;1.40;;;16.90;86.60;;;;;;4912428;29;20191;-79
2023/06/03 08:15:48;;;;;;;3.38;1.45;;;16.90;87.00;;;;;;4974070;28;20225;-80
2023/06/03 08:18:47;;;;;;;3.25;1.40;;;17.00;87.30;;;;;;4918379;29;20236;-83
2023/06/03 08:21:14;;;;;;;3.03;1.15;;;17.00;86.70;;;;;;4920127;29;20182;-82
2023/06/03 08:23:40;;;;;;;2.58;1.30;;;17.00;87.30;;;;;;4952003;29;20219;-81
2023/06/03 08:26:08;;;;;;;3.50;1.40;;;17.10;87.20;;;;;;4952101;29;20198;-81
2023/06/03 08:28:38;;;;;;;2.25;1.20;;;17.30;86.20;;;;;;4940178;28;20624;-81
2023/06/03 08:31:04;;;;;;;4.35;1.20;;;17.30;84.50;;;;;;4973287;28;20196;-81
2023/06/03 08:33:30;;;;;;;4.57;1.45;;;17.40;83.80;;;;;;4936999;29;20257;-81
2023/06/03 08:35:56;;;;;;;4.55;2.03;;;17.50;82.70;;;;;;4955635;28;20589;-82
2023/06/03 08:38:22;;;;;;;6.80;1.30;;;17.60;81.70;;;;;;4956931;29;20187;-84
2023/06/03 08:40:49;;;;;;;3.97;1.30;;;17.70;81.30;;;;;;4939845;29;20187;-81
2023/06/03 08:43:17;;;;;;;2.28;1.17;;;17.90;80.50;;;;;;4956848;29;20179;-81
2023/06/03 08:46:05;;;;;;;3.50;1.27;;;18.00;79.40;;;;;;4939767;29;20186;-81
2023/06/03 08:48:34;;;;;;;3.53;1.45;;;18.10;78.80;;;;;;4956832;29;20188;-80
2023/06/03 08:51:04;;;;;;;4.43;1.35;;;18.30;78.60;;;;;;4956785;29;20182;-80
2023/06/03 08:53:56;;;;;;;3.38;1.05;;;18.40;77.30;;;;;;4955507;29;20190;-80
2023/06/03 08:56:25;;;;;;;2.80;2.13;;;18.50;73.30;;;;;;4935722;28;20226;-81
2023/06/03 08:59:02;;;;;;;3.55;0.98;;;18.60;74.40;;;;;;4946884;28;20288;-81
2023/06/03 09:01:35;;;;;;;1.45;1.13;;;18.70;73.00;;;;;;4977240;28;20170;-81
2023/06/03 09:04:03;;;;;;;4.47;1.27;;;18.80;72.50;;;;;;4939809;29;20234;-80
2023/06/03 09:06:30;;;;;;;2.10;1.20;;;18.90;72.50;;;;;;4920844;29;20184;-81
2023/06/03 09:08:57;;;;;;;1.70;1.10;;;19.00;71.80;;;;;;4935603;29;20610;-81
2023/06/03 09:11:25;;;;;;;6.13;0.90;;;19.10;70.10;;;;;;4925004;29;20186;-81
2023/06/03 09:13:56;;;;;;;2.22;1.08;;;19.30;68.30;;;;;;4950879;29;20195;-81
2023/06/03 09:16:22;;;;;;;1.80;1.00;;;19.40;67.90;;;;;;4958055;28;20688;-82
2023/06/03 09:18:51;;;;;;;3.85;1.15;;;19.40;65.20;;;;;;4955463;28;20201;-81
2023/06/03 09:21:18;;;;;;;1.15;0.93;;;19.50;63.40;;;;;;4956479;29;20617;-81
2023/06/03 09:23:44;;;;;;;2.10;1.10;;;19.50;61.80;;;;;;4955433;29;20207;-81
2023/06/03 09:26:09;;;;;;;2.25;0.98;;;19.50;61.20;;;;;;4954955;29;20197;-82
2023/06/03 09:28:35;;;;;;;3.30;1.27;;;19.50;60.40;;;;;;4912285;29;20267;-81
2023/06/03 09:31:04;;;;;;;3.33;1.27;;;19.50;59.50;;;;;;4939363;29;20191;-81
2023/06/03 09:33:30;;;;;;;3.75;1.00;;;19.60;60.10;;;;;;4961564;28;20186;-81
2023/06/03 09:36:17;;;;;;;3.13;0.98;;;19.70;59.50;;;;;;4924632;29;20197;-80
2023/06/03 09:38:50;;;;;;;3.90;0.93;;;19.80;59.50;;;;;;4939413;29;20177;-81
2023/06/03 09:41:21;;;;;;;3.80;1.52;;;19.90;59.30;;;;;;4940139;29;20183;-82
2023/06/03 09:43:54;;;;;;;2.20;1.30;;;19.90;59.20;;;;;;4955457;29;20214;-81
2023/06/03 09:46:20;;;;;;;3.33;1.25;;;20.00;58.70;;;;;;4921064;29;20286;-85
2023/06/03 09:48:46;;;;;;;5.70;1.45;;;20.10;57.90;;;;;;4957391;29;20218;-80
2023/06/03 09:51:11;;;;;;;5.28;1.17;;;20.10;57.10;;;;;;4923652;29;20252;-80
2023/06/03 09:53:37;;;;;;;2.88;1.20;;;20.20;57.60;;;;;;4938759;29;20182;-81
2023/06/03 09:56:28;;;;;;;3.30;1.00;;;20.20;57.10;;;;;;4938317;29;20507;-80
2023/06/03 09:59:29;;;;;;;3.70;1.20;;;20.30;57.30;;;;;;4955935;29;20237;-81
2023/06/03 10:01:55;;;;;;;7.28;1.33;;;20.40;56.80;;;;;;4924982;29;20217;-80
2023/06/03 10:04:36;;;;;;;2.17;0.93;;;20.30;56.90;;;;;;4955923;29;20211;-81
2023/06/03 10:07:13;;;;;;;3.28;1.15;;;20.20;56.60;;;;;;4938807;29;20614;-81
2023/06/03 10:09:44;;;;;;;2.65;1.00;;;20.40;56.90;;;;;;4938090;29;20719;-80
2023/06/03 10:12:11;;;;;;;2.00;0.95;;;20.40;55.80;;;;;;4947751;29;20176;-81
2023/06/03 10:14:50;;;;;;;2.08;1.00;;;20.40;55.40;;;;;;4932541;29;20178;-80
2023/06/03 10:17:17;;;;;;;4.15;1.05;;;20.40;54.80;;;;;;4936726;29;20188;-80
2023/06/03 10:19:45;;;;;;;4.13;1.20;;;20.40;54.70;;;;;;4918745;29;20226;-80
2023/06/03 10:22:18;;;;;;;2.67;1.00;;;20.40;55.00;;;;;;4918864;29;20190;-81
2023/06/03 10:24:49;;;;;;;3.10;1.38;;;20.50;55.10;;;;;;4928141;29;20311;-81
2023/06/03 10:27:17;;;;;;;2.40;1.20;;;20.50;54.90;;;;;;4918375;29;20640;-81
2023/06/03 10:29:43;;;;;;;2.70;1.40;;;20.60;54.80;;;;;;4926865;29;20266;-80
2023/06/03 10:32:12;;;;;;;2.65;1.20;;;20.60;54.50;;;;;;4918729;29;20183;-80
2023/06/03 10:34:43;;;;;;;4.05;1.23;;;20.70;54.30;;;;;;4918967;29;20218;-79
2023/06/03 10:37:12;;;;;;;3.08;1.13;;;20.80;54.60;;;;;;4919223;29;20285;-79
2023/06/03 10:39:40;;;;;;;2.22;1.30;;;20.90;54.20;;;;;;4918490;29;20211;-80
2023/06/03 10:42:06;;;;;;;3.45;1.65;;;20.90;53.80;;;;;;4919098;29;20255;-79
2023/06/03 10:44:32;;;;;;;4.55;1.40;;;20.80;53.70;;;;;;4918981;29;20289;-79
2023/06/03 10:47:06;;;;;;;6.05;1.20;;;20.80;54.30;;;;;;4936528;29;20720;-79
2023/06/03 10:49:43;;;;;;;1.95;1.15;;;20.80;54.10;;;;;;4935826;29;20187;-81
2023/06/03 10:52:27;;;;;;;2.17;1.30;;;20.80;54.20;;;;;;4900862;29;20199;-80
2023/06/03 10:55:17;;;;;;;3.80;1.52;;;20.80;53.90;;;;;;4919477;29;20190;-79
2023/06/03 10:57:51;;;;;;;1.80;1.20;;;20.80;53.90;;;;;;4919102;29;20212;-79
2023/06/03 11:00:51;;;;;;;2.80;1.42;;;20.90;53.60;;;;;;4918167;29;20191;-80
2023/06/03 11:03:17;;;;;;;2.90;1.35;;;20.90;53.50;;;;;;4934509;29;20213;-80
2023/06/03 11:05:45;;;;;;;5.53;1.40;;;20.90;53.50;;;;;;4934634;29;20595;-79
2023/06/03 11:08:11;;;;;;;2.10;1.15;;;21.00;53.40;;;;;;4935617;29;20194;-80
2023/06/03 11:10:39;;;;;;;4.22;1.30;;;21.00;53.60;;;;;;4935232;29;20198;-81
2023/06/03 11:13:05;;;;;;;3.15;1.10;;;21.00;53.60;;;;;;4918997;29;20634;-81
2023/06/03 11:15:58;;;;;;;3.53;1.20;;;21.00;53.10;;;;;;4921433;29;20234;-80
2023/06/03 11:18:24;;;;;;;2.05;1.10;;;21.00;53.00;;;;;;4929662;29;20254;-81
2023/06/03 11:20:50;;;;;;;2.05;1.15;;;21.10;53.20;;;;;;4918338;29;20226;-81
2023/06/03 11:23:44;;;;;;;3.10;1.20;;;21.20;52.80;;;;;;4949322;29;20657;-84
2023/06/03 11:26:31;;;;;;;3.05;1.23;;;21.20;52.50;;;;;;4918553;29;20270;-81
2023/06/03 11:28:56;;;;;;;2.67;1.20;;;21.20;52.10;;;;;;4933903;29;20179;-80
2023/06/03 11:31:24;;;;;;;1.55;1.02;;;21.30;52.10;;;;;;4935745;29;20186;-81
2023/06/03 11:34:28;;;;;;;3.42;1.20;;;21.30;51.40;;;;;;4952894;29;20194;-80
2023/06/03 11:36:55;;;;;;;2.90;1.30;;;21.40;50.00;;;;;;4858618;29;20845;-81
2023/06/03 11:39:22;;;;;;;3.30;1.20;;;21.50;50.60;;;;;;4859234;29;20190;-81
2023/06/03 11:42:08;;;;;;;2.90;1.10;;;21.60;50.60;;;;;;4904368;29;20277;-82
2023/06/03 11:44:36;;;;;;;2.60;1.00;;;21.60;50.20;;;;;;4930685;29;20341;-82
2023/06/03 11:47:03;;;;;;;3.15;1.10;;;21.70;50.50;;;;;;4955630;29;20191;-81
2023/06/03 11:49:32;;;;;;;2.70;1.13;;;21.80;50.50;;;;;;4938363;29;20269;-81
2023/06/03 11:52:00;;;;;;;4.07;1.35;;;21.90;49.90;;;;;;4939506;29;20752;-79
2023/06/03 11:54:26;;;;;;;2.92;1.10;;;22.00;49.80;;;;;;4955435;29;20191;-81
2023/06/03 11:56:54;;;;;;;3.28;1.13;;;22.00;49.80;;;;;;4938534;29;20182;-80
2023/06/03 11:59:28;;;;;;;2.95;1.40;;;22.10;49.60;;;;;;4938838;29;20187;-80
2023/06/03 12:01:55;;;;;;;2.83;1.42;;;22.10;48.80;;;;;;4938196;29;20224;-80
2023/06/03 12:04:20;;;;;;;2.35;1.30;;;22.20;49.10;;;;;;4952650;29;20210;-80
2023/06/03 12:06:46;;;;;;;2.97;1.35;;;22.10;49.30;;;;;;4922536;29;20187;-81
2023/06/03 12:09:26;;;;;;;2.10;1.23;;;22.10;49.40;;;;;;4954994;28;20614;-81
2023/06/03 12:11:54;;;;;;;1.67;1.20;;;22.00;49.00;;;;;;4954926;29;20199;-81
2023/06/03 12:14:32;;;;;;;2.47;1.00;;;22.00;49.30;;;;;;4954599;28;20238;-81
2023/06/03 12:17:11;;;;;;;3.53;1.42;;;22.10;49.80;;;;;;4954146;28;20230;-82
2023/06/03 12:19:44;;;;;;;1.73;1.38;;;22.20;49.90;;;;;;4935621;29;20174;-82
2023/06/03 12:22:10;;;;;;;2.47;1.23;;;22.30;49.80;;;;;;4927910;29;20178;-82
2023/06/03 12:24:40;;;;;;;3.10;1.38;;;22.30;49.70;;;;;;4957351;29;20270;-80
2023/06/03 12:27:22;;;;;;;1.70;1.52;;;22.40;50.00;;;;;;4941380;29;20254;-81
2023/06/03 12:29:56;;;;;;;5.90;1.27;;;22.50;50.00;;;;;;4934420;29;20569;-81
2023/06/03 12:32:25;;;;;;;6.07;1.30;;;22.50;49.60;;;;;;4947402;29;20230;-84
2023/06/03 12:34:51;;;;;;;2.60;1.17;;;22.50;49.30;;;;;;4955460;28;20194;-81
2023/06/03 12:37:30;;;;;;;6.47;1.30;;;22.50;49.50;;;;;;4937737;29;20257;-80
2023/06/03 12:39:57;;;;;;;5.13;1.35;;;22.60;49.30;;;;;;4937819;29;20237;-82
2023/06/03 12:42:37;;;;;;;2.03;1.30;;;22.60;49.10;;;;;;4935191;29;20190;-81
2023/06/03 12:45:04;;;;;;;6.03;1.27;;;22.50;49.40;;;;;;4941831;29;20218;-81
2023/06/03 12:47:45;;;;;;;1.70;1.08;;;22.50;49.60;;;;;;4935591;29;20187;-80
2023/06/03 12:50:12;;;;;;;3.08;1.10;;;22.40;50.00;;;;;;4934944;29;20175;-81
2023/06/03 12:52:38;;;;;;;2.33;1.20;;;22.40;50.50;;;;;;4937863;29;20549;-81
2023/06/03 12:55:07;;;;;;;2.85;1.05;;;22.50;50.80;;;;;;4954955;29;20178;-81
2023/06/03 12:57:44;;;;;;;2.58;1.23;;;22.50;50.90;;;;;;4937487;29;20189;-80
2023/06/03 13:00:15;;;;;;;3.25;1.20;;;22.60;50.40;;;;;;4937866;29;20198;-79
2023/06/03 13:02:46;;;;;;;2.63;1.23;;;22.50;50.90;;;;;;4952973;29;20187;-81